Terminal Aerodrome Forecast
Issued by NWS Duluth, MN

Home | Current Version | Previous Version | Text Only | Print | Product List | Glossary On
Versions: 1 2 3 4 5 6 7 8 9 10 11 12 13 14 15 16 17 18 19 20
879
FTUS43 KDLH 262338
TAFINL
TAF
KINL 262338Z 2700/2724 22004KT P6SM SCT070
     FM270300 VRB03KT P6SM FEW070 BKN200
     FM271000 16003KT P6SM BKN060
     FM271400 18006KT P6SM VCSH OVC050
     FM271900 17006KT 6SM -SHRA VCTS OVC040CB=

USA.gov is the U.S. government's official web portal to all federal, state and local government web resources and services.